Time;durP1;ratioP1;P1;durP2;ratioP2;P2;SDS_P1;SDS_P2;PMS_P1;PMS_P2;Temp;Humidity;BMP_temperature;BMP_pressure;BME280_temperature;BME280_humidity;BME280_pressure;Samples;Min_cycle;Max_cycle;Signal;HPM_P1;HPM_P2
2023/05/10 00:02:19;;;;;;;3.38;1.40;;;;;;;;;;5010118;28;20501;-66
2023/05/10 00:04:45;;;;;;;6.65;1.60;;;;;;;;;;5009751;28;20025;-65
2023/05/10 00:07:10;;;;;;;4.03;1.52;;;;;;;;;;5011904;28;20026;-65
2023/05/10 00:09:35;;;;;;;3.57;1.40;;;;;;;;;;5005643;28;20479;-66
2023/05/10 00:12:00;;;;;;;4.77;1.60;;;;;;;;;;5010474;28;20064;-64
2023/05/10 00:14:25;;;;;;;5.00;1.50;;;;;;;;;;5011141;28;20034;-66
2023/05/10 00:16:50;;;;;;;6.20;1.70;;;;;;;;;;5011814;28;20366;-66
2023/05/10 00:19:15;;;;;;;4.88;1.70;;;;;;;;;;5014560;28;20026;-66
2023/05/10 00:21:41;;;;;;;4.95;1.70;;;;;;;;;;5010531;28;20042;-65
2023/05/10 00:24:06;;;;;;;4.03;1.60;;;;;;;;;;5006806;28;20378;-67
2023/05/10 00:26:31;;;;;;;5.70;1.80;;;;;;;;;;5011713;28;20448;-66
2023/05/10 00:28:58;;;;;;;3.47;1.40;;;;;;;;;;5010890;28;20105;-66
2023/05/10 00:31:23;;;;;;;5.45;1.45;;;;;;;;;;5011310;28;20053;-66
2023/05/10 00:33:48;;;;;;;3.93;1.47;;;;;;;;;;5008899;28;20462;-66
2023/05/10 00:36:13;;;;;;;4.80;1.60;;;;;;;;;;5010855;28;20465;-66
2023/05/10 00:38:38;;;;;;;3.40;1.20;;;;;;;;;;5011280;28;20109;-66
2023/05/10 00:41:04;;;;;;;3.40;1.38;;;;;;;;;;5003978;28;20028;-66
2023/05/10 00:43:29;;;;;;;3.77;1.47;;;;;;;;;;5010939;28;20021;-66
2023/05/10 00:45:54;;;;;;;4.80;1.60;;;;;;;;;;5009674;28;20119;-66
2023/05/10 00:48:20;;;;;;;4.23;1.70;;;;;;;;;;5010356;28;20021;-66
2023/05/10 00:50:45;;;;;;;3.95;1.50;;;;;;;;;;5011193;28;20816;-66
2023/05/10 00:53:10;;;;;;;5.47;1.77;;;;;;;;;;5008977;28;20121;-65
2023/05/10 00:55:35;;;;;;;4.73;1.50;;;;;;;;;;5010700;28;20109;-65
2023/05/10 00:58:01;;;;;;;3.90;1.60;;;;;;;;;;5004722;28;20452;-66
2023/05/10 01:00:26;;;;;;;4.75;1.70;;;;;;;;;;5008169;28;20054;-65
2023/05/10 01:02:52;;;;;;;4.73;1.47;;;;;;;;;;5011098;28;20471;-66
2023/05/10 01:05:18;;;;;;;5.10;1.52;;;;;;;;;;5009609;28;20025;-67
2023/05/10 01:07:43;;;;;;;3.63;1.50;;;;;;;;;;5012859;28;20397;-65
2023/05/10 01:10:09;;;;;;;2.93;1.27;;;;;;;;;;5010861;28;21020;-67
2023/05/10 01:12:38;;;;;;;4.53;1.50;;;;;;;;;;5010539;28;20468;-68
2023/05/10 01:15:05;;;;;;;3.60;1.33;;;;;;;;;;5006580;28;20018;-64
2023/05/10 01:17:30;;;;;;;4.38;1.70;;;;;;;;;;5011463;28;20034;-65
2023/05/10 01:19:55;;;;;;;3.60;1.57;;;;;;;;;;5010442;28;20045;-67
2023/05/10 01:22:29;;;;;;;4.03;1.45;;;;;;;;;;5009656;28;20477;-66
2023/05/10 01:25:13;;;;;;;6.45;1.63;;;;;;;;;;5010851;28;20025;-67
2023/05/10 01:27:58;;;;;;;4.65;1.50;;;;;;;;;;5010325;28;20065;-67
2023/05/10 01:30:23;;;;;;;4.00;1.48;;;;;;;;;;4987270;28;20038;-66
2023/05/10 01:32:54;;;;;;;4.53;1.48;;;;;;;;;;5003795;28;20083;-67
2023/05/10 01:35:26;;;;;;;4.68;1.42;;;;;;;;;;5005411;28;20497;-67
2023/05/10 01:38:10;;;;;;;4.18;1.40;;;;;;;;;;5010276;28;20037;-68
2023/05/10 01:40:37;;;;;;;3.85;1.50;;;;;;;;;;5007030;28;20394;-66
2023/05/10 01:43:03;;;;;;;5.20;1.50;;;;;;;;;;5006666;28;20033;-65
2023/05/10 01:45:31;;;;;;;5.70;1.70;;;;;;;;;;5006808;28;20026;-67
2023/05/10 01:48:05;;;;;;;4.82;1.80;;;;;;;;;;5007982;28;20030;-67
2023/05/10 01:50:30;;;;;;;5.25;1.70;;;;;;;;;;5007147;28;20026;-66
2023/05/10 01:52:57;;;;;;;5.00;1.35;;;;;;;;;;5010024;28;20026;-66
2023/05/10 01:55:22;;;;;;;;;;;;;;;;;;5007310;28;20172;-66
2023/05/10 01:57:50;;;;;;;3.50;1.42;;;;;;;;;;5009714;28;19999;-67
2023/05/10 02:00:16;;;;;;;4.28;1.60;;;;;;;;;;5001743;28;20454;-65
2023/05/10 02:02:47;;;;;;;5.82;1.33;;;;;;;;;;5007975;28;20036;-66
2023/05/10 02:05:13;;;;;;;3.95;1.30;;;;;;;;;;5009702;28;20022;-66
2023/05/10 02:07:38;;;;;;;3.97;1.42;;;;;;;;;;5010312;28;20115;-66
2023/05/10 02:10:04;;;;;;;5.43;1.55;;;;;;;;;;5010137;28;20747;-66
2023/05/10 02:12:31;;;;;;;3.78;1.45;;;;;;;;;;5006782;28;20025;-67
2023/05/10 02:14:57;;;;;;;3.70;1.60;;;;;;;;;;5009995;28;20025;-67
2023/05/10 02:17:22;;;;;;;4.63;1.40;;;;;;;;;;5008778;28;20021;-67
2023/05/10 02:19:48;;;;;;;4.22;1.30;;;;;;;;;;5008381;28;20018;-67
2023/05/10 02:22:14;;;;;;;4.47;1.30;;;;;;;;;;5004380;28;20034;-66
2023/05/10 02:24:39;;;;;;;4.47;1.83;;;;;;;;;;5004542;28;20467;-67
2023/05/10 02:27:06;;;;;;;5.18;1.63;;;;;;;;;;5009223;28;20029;-66
2023/05/10 02:29:32;;;;;;;4.13;1.50;;;;;;;;;;5005551;28;20028;-67
2023/05/10 02:31:57;;;;;;;3.90;1.50;;;;;;;;;;5005432;28;20600;-66
2023/05/10 02:34:23;;;;;;;4.60;1.30;;;;;;;;;;5009297;28;20034;-67
2023/05/10 02:36:49;;;;;;;6.75;1.50;;;;;;;;;;5006195;28;20041;-68
2023/05/10 02:39:15;;;;;;;4.32;1.50;;;;;;;;;;5008424;28;20087;-68
2023/05/10 02:41:40;;;;;;;5.20;1.50;;;;;;;;;;5007831;28;20025;-67
2023/05/10 02:44:07;;;;;;;5.50;1.42;;;;;;;;;;5009461;28;20504;-66
2023/05/10 02:46:32;;;;;;;5.18;1.58;;;;;;;;;;5007992;28;20018;-67
2023/05/10 02:48:57;;;;;;;5.30;1.50;;;;;;;;;;5007897;28;20022;-68
2023/05/10 02:51:25;;;;;;;5.55;1.38;;;;;;;;;;5006537;28;20041;-67
2023/05/10 02:53:53;;;;;;;3.40;1.40;;;;;;;;;;5008372;28;20104;-66
2023/05/10 02:56:23;;;;;;;6.78;1.65;;;;;;;;;;5003945;28;20026;-66
2023/05/10 02:58:48;;;;;;;5.30;1.50;;;;;;;;;;5007628;28;20409;-65
2023/05/10 03:01:13;;;;;;;4.53;1.52;;;;;;;;;;5004915;28;20033;-67
2023/05/10 03:03:38;;;;;;;3.47;1.30;;;;;;;;;;5005396;28;20109;-67
2023/05/10 03:06:04;;;;;;;5.03;1.50;;;;;;;;;;5004428;28;20025;-65
2023/05/10 03:08:29;;;;;;;5.25;1.38;;;;;;;;;;5003435;28;20025;-66
2023/05/10 03:11:14;;;;;;;4.80;1.60;;;;;;;;;;5006350;28;20030;-67
2023/05/10 03:13:48;;;;;;;5.07;1.60;;;;;;;;;;5000163;28;20030;-66
2023/05/10 03:16:21;;;;;;;4.18;1.40;;;;;;;;;;5009161;28;20026;-65
2023/05/10 03:19:05;;;;;;;3.83;1.60;;;;;;;;;;5007004;28;20112;-66
2023/05/10 03:21:31;;;;;;;4.78;1.42;;;;;;;;;;5004922;28;20026;-65
2023/05/10 03:24:02;;;;;;;3.90;1.55;;;;;;;;;;5007919;28;20049;-68
2023/05/10 03:26:28;;;;;;;5.43;1.80;;;;;;;;;;5010219;28;20022;-66
2023/05/10 03:28:54;;;;;;;4.03;1.55;;;;;;;;;;5008973;28;20780;-68
2023/05/10 03:31:19;;;;;;;4.15;1.40;;;;;;;;;;5005787;28;20030;-66
2023/05/10 03:33:48;;;;;;;5.73;1.80;;;;;;;;;;5007827;28;20088;-65
2023/05/10 03:36:13;;;;;;;4.15;1.50;;;;;;;;;;5005849;28;20022;-67
2023/05/10 03:38:38;;;;;;;5.82;1.80;;;;;;;;;;5006927;28;20155;-66
2023/05/10 03:41:04;;;;;;;3.87;1.50;;;;;;;;;;5008776;28;20026;-66
2023/05/10 03:43:29;;;;;;;4.20;1.30;;;;;;;;;;5012061;28;20026;-66
2023/05/10 03:45:54;;;;;;;3.87;1.40;;;;;;;;;;5011359;28;20101;-66
2023/05/10 03:48:19;;;;;;;3.17;1.30;;;;;;;;;;5009785;28;20390;-66
2023/05/10 03:50:44;;;;;;;5.18;1.38;;;;;;;;;;5006655;28;20029;-67
2023/05/10 03:53:09;;;;;;;4.20;1.60;;;;;;;;;;5008178;28;20556;-67
2023/05/10 03:55:36;;;;;;;4.72;1.58;;;;;;;;;;5010540;28;20101;-66
2023/05/10 03:58:01;;;;;;;4.85;1.45;;;;;;;;;;5012931;28;20029;-67
2023/05/10 04:00:26;;;;;;;5.17;1.60;;;;;;;;;;5010075;28;20034;-66
2023/05/10 04:02:51;;;;;;;4.60;1.55;;;;;;;;;;5009134;28;20445;-67
2023/05/10 04:05:16;;;;;;;4.00;1.50;;;;;;;;;;5012383;28;20014;-67
2023/05/10 04:07:41;;;;;;;4.53;1.50;;;;;;;;;;5009473;28;20029;-65
2023/05/10 04:10:07;;;;;;;7.72;1.80;;;;;;;;;;5016090;28;20085;-66
2023/05/10 04:12:32;;;;;;;4.13;1.50;;;;;;;;;;5008262;28;20018;-67
2023/05/10 04:14:57;;;;;;;4.90;1.70;;;;;;;;;;5010978;28;20470;-67
2023/05/10 04:17:22;;;;;;;7.72;1.63;;;;;;;;;;5009086;28;20045;-67
2023/05/10 04:19:48;;;;;;;3.60;1.23;;;;;;;;;;5010362;28;20107;-67
2023/05/10 04:22:13;;;;;;;4.13;1.70;;;;;;;;;;5003625;28;20505;-67
2023/05/10 04:24:38;;;;;;;3.75;1.40;;;;;;;;;;5011499;28;20018;-67
2023/05/10 04:27:03;;;;;;;4.07;1.30;;;;;;;;;;5008166;28;20121;-65
2023/05/10 04:29:28;;;;;;;5.95;1.88;;;;;;;;;;5006141;28;20030;-67
2023/05/10 04:31:54;;;;;;;4.82;1.55;;;;;;;;;;5002193;28;20045;-65
2023/05/10 04:34:20;;;;;;;3.58;1.38;;;;;;;;;;5008351;28;20030;-67
2023/05/10 04:36:45;;;;;;;4.30;1.50;;;;;;;;;;5005164;28;20679;-67
2023/05/10 04:39:10;;;;;;;4.63;1.60;;;;;;;;;;5009340;28;20263;-67
2023/05/10 04:41:37;;;;;;;4.13;1.40;;;;;;;;;;5006799;28;20028;-67
2023/05/10 04:44:02;;;;;;;5.07;1.80;;;;;;;;;;5004123;28;20045;-67
2023/05/10 04:46:27;;;;;;;8.77;2.17;;;;;;;;;;5005753;28;20120;-67
2023/05/10 04:48:52;;;;;;;5.75;1.58;;;;;;;;;;5012877;28;20026;-68
2023/05/10 04:51:17;;;;;;;5.65;2.00;;;;;;;;;;5011776;28;20440;-65
2023/05/10 04:53:43;;;;;;;4.93;1.42;;;;;;;;;;5004115;28;20056;-65
2023/05/10 04:56:08;;;;;;;4.97;1.70;;;;;;;;;;5005697;28;20021;-64
2023/05/10 04:58:33;;;;;;;4.20;1.40;;;;;;;;;;5007630;28;20584;-66
2023/05/10 05:01:04;;;;;;;5.37;1.57;;;;;;;;;;5006542;28;20033;-64
2023/05/10 05:03:29;;;;;;;6.47;1.60;;;;;;;;;;5004872;28;20034;-66
2023/05/10 05:05:54;;;;;;;4.32;1.40;;;;;;;;;;5008170;28;20036;-65
2023/05/10 05:08:20;;;;;;;6.55;1.90;;;;;;;;;;5007612;28;20452;-67
2023/05/10 05:10:45;;;;;;;5.00;1.60;;;;;;;;;;5005761;28;20030;-65
2023/05/10 05:13:12;;;;;;;5.20;1.50;;;;;;;;;;5001879;28;20026;-65
2023/05/10 05:15:37;;;;;;;4.15;1.40;;;;;;;;;;5002360;28;20105;-65
2023/05/10 05:18:02;;;;;;;5.13;1.50;;;;;;;;;;5012961;28;20224;-66
2023/05/10 05:20:27;;;;;;;6.03;1.60;;;;;;;;;;5008538;28;20091;-65
2023/05/10 05:22:53;;;;;;;3.67;1.57;;;;;;;;;;5005605;28;20460;-66
2023/05/10 05:25:18;;;;;;;5.57;1.50;;;;;;;;;;5009039;28;20049;-66
2023/05/10 05:27:43;;;;;;;4.93;1.40;;;;;;;;;;5008693;28;20034;-66
2023/05/10 05:30:08;;;;;;;4.70;1.40;;;;;;;;;;5011364;28;20020;-67
2023/05/10 05:32:33;;;;;;;7.13;1.98;;;;;;;;;;5008486;28;20045;-67
2023/05/10 05:34:59;;;;;;;3.80;1.30;;;;;;;;;;5011972;28;20021;-65
2023/05/10 05:37:24;;;;;;;5.72;1.70;;;;;;;;;;5011060;28;20087;-66
2023/05/10 05:39:49;;;;;;;8.52;1.83;;;;;;;;;;5012433;28;20021;-67
2023/05/10 05:42:16;;;;;;;3.75;1.40;;;;;;;;;;5009703;28;20065;-64
2023/05/10 05:44:41;;;;;;;;;;;;;;;;;;5011829;28;20455;-66
2023/05/10 05:47:06;;;;;;;4.65;1.35;;;;;;;;;;5013093;28;19992;-67
2023/05/10 05:49:31;;;;;;;7.55;1.58;;;;;;;;;;5013849;28;20033;-66
2023/05/10 05:52:02;;;;;;;6.80;1.60;;;;;;;;;;5009685;28;20022;-65
2023/05/10 05:54:28;;;;;;;5.15;1.45;;;;;;;;;;5008013;28;20025;-66
2023/05/10 05:56:55;;;;;;;3.83;1.48;;;;;;;;;;5011370;28;20029;-66
2023/05/10 05:59:20;;;;;;;4.95;1.58;;;;;;;;;;5010612;28;20036;-67
2023/05/10 06:01:45;;;;;;;5.53;1.85;;;;;;;;;;5006700;28;20017;-67
2023/05/10 06:04:10;;;;;;;5.83;1.67;;;;;;;;;;5007072;28;20031;-66
2023/05/10 06:06:36;;;;;;;4.90;1.67;;;;;;;;;;5005306;28;20025;-67
2023/05/10 06:09:01;;;;;;;7.77;2.30;;;;;;;;;;5004031;28;20046;-68
2023/05/10 06:11:26;;;;;;;4.60;1.30;;;;;;;;;;5005385;28;20022;-67
2023/05/10 06:13:51;;;;;;;5.00;1.55;;;;;;;;;;5004517;28;20060;-67
2023/05/10 06:16:17;;;;;;;3.67;1.45;;;;;;;;;;5008193;28;20038;-66
2023/05/10 06:18:42;;;;;;;6.68;1.40;;;;;;;;;;5008462;28;20385;-68
2023/05/10 06:21:07;;;;;;;7.68;2.17;;;;;;;;;;5007512;28;20374;-67
2023/05/10 06:23:33;;;;;;;4.13;1.40;;;;;;;;;;5007468;28;20030;-67
2023/05/10 06:25:58;;;;;;;4.20;1.42;;;;;;;;;;5009424;28;20493;-67
2023/05/10 06:28:23;;;;;;;6.27;1.60;;;;;;;;;;5006478;28;20393;-67
2023/05/10 06:30:48;;;;;;;6.53;1.40;;;;;;;;;;5007286;28;20508;-68
2023/05/10 06:33:13;;;;;;;4.78;1.55;;;;;;;;;;5007064;28;20018;-67
2023/05/10 06:35:38;;;;;;;4.00;1.73;;;;;;;;;;5006150;28;20674;-67
2023/05/10 06:38:03;;;;;;;4.90;1.60;;;;;;;;;;5009253;28;20017;-66
2023/05/10 06:40:29;;;;;;;4.80;1.50;;;;;;;;;;5010492;28;20045;-68
2023/05/10 06:42:54;;;;;;;3.60;1.40;;;;;;;;;;5008415;28;20508;-69
2023/05/10 06:45:19;;;;;;;6.20;1.87;;;;;;;;;;5009313;28;20061;-67
2023/05/10 06:47:45;;;;;;;4.50;1.73;;;;;;;;;;5010029;28;20018;-67
2023/05/10 06:50:13;;;;;;;4.55;1.67;;;;;;;;;;5010343;28;20164;-67
2023/05/10 06:52:39;;;;;;;4.38;1.70;;;;;;;;;;5008708;28;20108;-68
2023/05/10 06:55:04;;;;;;;6.17;1.67;;;;;;;;;;5006858;28;20153;-66
2023/05/10 06:57:29;;;;;;;3.90;1.50;;;;;;;;;;5008424;28;20409;-67
2023/05/10 06:59:56;;;;;;;6.10;1.83;;;;;;;;;;5013107;28;20017;-67
2023/05/10 07:02:21;;;;;;;5.43;1.80;;;;;;;;;;5006558;28;20485;-67
2023/05/10 07:04:46;;;;;;;5.75;1.80;;;;;;;;;;5009532;28;20370;-65
2023/05/10 07:07:12;;;;;;;6.75;1.90;;;;;;;;;;5008987;28;20450;-66
2023/05/10 07:09:37;;;;;;;7.07;1.77;;;;;;;;;;5008301;28;20036;-65
2023/05/10 07:12:02;;;;;;;4.60;1.70;;;;;;;;;;5007866;28;20116;-67
2023/05/10 07:14:27;;;;;;;5.00;1.90;;;;;;;;;;5011169;28;20481;-66
2023/05/10 07:16:52;;;;;;;5.53;1.67;;;;;;;;;;5015484;28;20978;-66
2023/05/10 07:19:18;;;;;;;7.07;1.70;;;;;;;;;;5007370;28;20511;-66
2023/05/10 07:21:43;;;;;;;5.90;1.80;;;;;;;;;;5012150;28;20050;-67
2023/05/10 07:24:08;;;;;;;5.50;1.70;;;;;;;;;;5015501;28;20401;-66
2023/05/10 07:26:34;;;;;;;6.35;2.00;;;;;;;;;;5016423;28;20160;-66
2023/05/10 07:28:59;;;;;;;4.18;1.70;;;;;;;;;;5012964;28;20049;-65
2023/05/10 07:31:24;;;;;;;6.72;1.80;;;;;;;;;;5014101;28;20485;-66
2023/05/10 07:33:49;;;;;;;4.63;2.10;;;;;;;;;;5014585;28;20036;-66
2023/05/10 07:36:14;;;;;;;6.18;1.73;;;;;;;;;;5013889;28;20014;-66
2023/05/10 07:38:40;;;;;;;5.70;1.70;;;;;;;;;;5013438;28;20406;-66
2023/05/10 07:41:05;;;;;;;4.32;1.88;;;;;;;;;;5014088;28;20041;-65
2023/05/10 07:43:30;;;;;;;4.97;1.70;;;;;;;;;;5014427;28;20116;-66
2023/05/10 07:45:57;;;;;;;7.18;2.05;;;;;;;;;;5013882;28;20100;-66
2023/05/10 07:48:22;;;;;;;5.07;1.80;;;;;;;;;;5012283;28;20029;-66
2023/05/10 07:50:47;;;;;;;5.15;1.95;;;;;;;;;;5013380;28;20201;-67
2023/05/10 07:53:12;;;;;;;4.95;2.00;;;;;;;;;;5013047;28;20021;-65
2023/05/10 07:55:37;;;;;;;4.25;1.80;;;;;;;;;;5013811;28;20026;-65
2023/05/10 07:58:03;;;;;;;5.32;1.80;;;;;;;;;;5012638;28;20056;-65
2023/05/10 08:00:28;;;;;;;5.37;1.93;;;;;;;;;;5013850;28;20022;-65
2023/05/10 08:02:53;;;;;;;6.07;2.17;;;;;;;;;;5013503;28;20484;-64
2023/05/10 08:05:18;;;;;;;9.38;2.13;;;;;;;;;;5012713;28;20117;-66
2023/05/10 08:07:43;;;;;;;9.00;2.10;;;;;;;;;;5012916;28;20022;-66
2023/05/10 08:10:10;;;;;;;4.20;1.80;;;;;;;;;;5011575;28;20426;-64
2023/05/10 08:12:36;;;;;;;5.50;2.08;;;;;;;;;;5012884;28;20036;-66
2023/05/10 08:15:01;;;;;;;4.43;2.10;;;;;;;;;;5013539;28;20400;-67
2023/05/10 08:17:26;;;;;;;6.17;1.90;;;;;;;;;;5012432;28;20017;-65
2023/05/10 08:19:51;;;;;;;6.88;2.20;;;;;;;;;;5012017;28;20022;-66
2023/05/10 08:22:16;;;;;;;5.63;1.70;;;;;;;;;;5007886;28;20038;-65
2023/05/10 08:24:42;;;;;;;4.43;1.92;;;;;;;;;;5008459;28;20037;-65
2023/05/10 08:27:07;;;;;;;6.63;1.90;;;;;;;;;;5010187;28;20470;-65
2023/05/10 08:29:33;;;;;;;5.93;1.80;;;;;;;;;;5012054;28;20045;-67
2023/05/10 08:31:58;;;;;;;5.03;1.87;;;;;;;;;;5012780;28;20521;-67
2023/05/10 08:34:23;;;;;;;5.50;2.00;;;;;;;;;;5011581;28;20038;-65
2023/05/10 08:36:48;;;;;;;5.50;2.40;;;;;;;;;;5012369;28;20441;-66
2023/05/10 08:39:13;;;;;;;5.72;2.25;;;;;;;;;;5013478;28;20014;-66
2023/05/10 08:41:39;;;;;;;4.47;1.90;;;;;;;;;;5013043;28;20105;-65
2023/05/10 08:44:06;;;;;;;4.50;2.28;;;;;;;;;;5009520;28;20026;-66
2023/05/10 08:46:33;;;;;;;6.63;2.00;;;;;;;;;;5012506;28;20042;-66
2023/05/10 08:49:01;;;;;;;5.40;2.10;;;;;;;;;;5013541;28;20436;-65
2023/05/10 08:51:27;;;;;;;7.32;2.20;;;;;;;;;;5012574;28;20018;-65
2023/05/10 08:53:52;;;;;;;5.68;2.10;;;;;;;;;;5009367;28;20110;-66
2023/05/10 08:56:17;;;;;;;5.70;2.10;;;;;;;;;;5011673;28;20073;-66
2023/05/10 08:58:43;;;;;;;6.00;2.40;;;;;;;;;;5012333;28;20072;-66
2023/05/10 09:01:08;;;;;;;11.63;2.22;;;;;;;;;;5012448;28;20025;-65
2023/05/10 09:03:33;;;;;;;6.90;2.40;;;;;;;;;;5012127;28;20080;-65
2023/05/10 09:05:58;;;;;;;7.13;2.20;;;;;;;;;;5012614;28;20383;-66
2023/05/10 09:08:26;;;;;;;6.20;1.83;;;;;;;;;;5011606;28;20030;-66
2023/05/10 09:10:52;;;;;;;6.20;2.08;;;;;;;;;;5011941;28;20516;-66
2023/05/10 09:13:18;;;;;;;6.53;2.42;;;;;;;;;;5011179;28;20025;-65
2023/05/10 09:15:43;;;;;;;5.07;2.00;;;;;;;;;;5011801;28;20085;-65
2023/05/10 09:18:08;;;;;;;4.70;2.22;;;;;;;;;;5012495;28;20017;-66
2023/05/10 09:20:34;;;;;;;5.43;2.20;;;;;;;;;;5012018;28;20470;-65
2023/05/10 09:22:59;;;;;;;6.22;2.20;;;;;;;;;;5010779;28;20038;-65
2023/05/10 09:25:24;;;;;;;6.20;2.50;;;;;;;;;;5010356;28;20099;-65
2023/05/10 09:27:49;;;;;;;5.50;2.27;;;;;;;;;;5008174;28;20021;-66
2023/05/10 09:30:23;;;;;;;5.93;2.20;;;;;;;;;;5013871;28;20033;-62
2023/05/10 09:32:49;;;;;;;5.80;2.22;;;;;;;;;;5012958;28;20052;-66
2023/05/10 09:35:15;;;;;;;;;;;;;;;;;;5013585;28;20018;-64
2023/05/10 09:37:41;;;;;;;5.40;2.05;;;;;;;;;;5012580;28;19909;-66
2023/05/10 09:40:07;;;;;;;;;;;;;;;;;;5010005;28;20030;-65
2023/05/10 09:42:32;;;;;;;5.93;2.47;;;;;;;;;;5011573;28;19917;-65
2023/05/10 09:45:00;;;;;;;6.20;2.08;;;;;;;;;;5010504;28;20037;-65
2023/05/10 09:47:26;;;;;;;6.60;2.30;;;;;;;;;;5012101;28;20018;-66
2023/05/10 09:49:52;;;;;;;6.13;2.55;;;;;;;;;;5012281;28;20013;-64
2023/05/10 09:52:17;;;;;;;5.65;2.50;;;;;;;;;;5012407;28;20104;-65
2023/05/10 09:54:51;;;;;;;7.32;2.20;;;;;;;;;;5014103;28;20535;-66
2023/05/10 09:57:23;;;;;;;7.35;2.60;;;;;;;;;;5013220;28;20080;-65
2023/05/10 09:59:49;;;;;;;5.82;2.38;;;;;;;;;;5010361;28;20025;-66
2023/05/10 10:02:15;;;;;;;5.88;2.58;;;;;;;;;;5011883;28;20025;-65
2023/05/10 10:04:40;;;;;;;5.22;2.40;;;;;;;;;;5012389;28;20022;-65
2023/05/10 10:07:06;;;;;;;7.13;2.10;;;;;;;;;;5011892;28;20119;-65
2023/05/10 10:09:31;;;;;;;5.43;2.55;;;;;;;;;;5010417;28;20022;-66
2023/05/10 10:11:57;;;;;;;6.05;2.15;;;;;;;;;;5011364;28;20037;-66
2023/05/10 10:14:23;;;;;;;7.60;2.27;;;;;;;;;;5012996;28;20030;-66
2023/05/10 10:16:49;;;;;;;5.40;2.33;;;;;;;;;;5011993;28;20032;-67
2023/05/10 10:19:14;;;;;;;;;;;;;;;;;;5011757;28;20013;-66
2023/05/10 10:21:40;;;;;;;6.65;2.33;;;;;;;;;;5008953;28;19920;-66
2023/05/10 10:24:05;;;;;;;7.72;2.25;;;;;;;;;;5009005;28;20133;-67
2023/05/10 10:26:33;;;;;;;5.20;2.78;;;;;;;;;;5011329;28;20544;-66
2023/05/10 10:29:16;;;;;;;6.22;2.70;;;;;;;;;;5011123;28;20041;-64
2023/05/10 10:31:55;;;;;;;6.88;2.75;;;;;;;;;;5005077;28;20022;-66
2023/05/10 10:34:28;;;;;;;7.38;2.60;;;;;;;;;;5009824;28;20029;-66
2023/05/10 10:36:54;;;;;;;6.05;2.38;;;;;;;;;;5011010;28;20025;-67
2023/05/10 10:39:19;;;;;;;7.25;2.53;;;;;;;;;;5008781;28;21748;-67
2023/05/10 10:41:55;;;;;;;5.95;2.22;;;;;;;;;;5008037;28;20489;-65
2023/05/10 10:44:24;;;;;;;4.80;2.28;;;;;;;;;;5010903;28;20587;-64
2023/05/10 10:46:59;;;;;;;6.38;2.60;;;;;;;;;;5010763;28;20544;-65
2023/05/10 10:49:24;;;;;;;6.72;2.42;;;;;;;;;;5009698;28;20367;-65
2023/05/10 10:52:08;;;;;;;5.67;2.60;;;;;;;;;;5010040;28;20032;-65
2023/05/10 10:54:35;;;;;;;6.38;2.50;;;;;;;;;;5011253;28;20018;-66
2023/05/10 10:57:09;;;;;;;5.57;2.30;;;;;;;;;;5009024;28;20474;-66
2023/05/10 10:59:35;;;;;;;8.93;2.40;;;;;;;;;;5009529;28;20038;-64
2023/05/10 11:02:00;;;;;;;5.27;2.50;;;;;;;;;;5009322;28;20018;-66
2023/05/10 11:04:25;;;;;;;6.20;2.63;;;;;;;;;;5010658;28;20045;-66
2023/05/10 11:07:11;;;;;;;5.85;2.30;;;;;;;;;;5010826;28;20474;-67
2023/05/10 11:09:39;;;;;;;6.35;2.80;;;;;;;;;;5007134;28;20038;-66
2023/05/10 11:12:07;;;;;;;5.40;2.42;;;;;;;;;;5001951;28;20105;-64
2023/05/10 11:14:33;;;;;;;5.57;2.63;;;;;;;;;;5010930;28;20021;-67
2023/05/10 11:16:58;;;;;;;7.60;2.80;;;;;;;;;;5010663;28;20551;-67
2023/05/10 11:19:27;;;;;;;6.18;2.63;;;;;;;;;;5012294;28;20028;-66
2023/05/10 11:22:15;;;;;;;5.90;2.40;;;;;;;;;;5013947;28;20409;-66
2023/05/10 11:24:55;;;;;;;6.70;2.35;;;;;;;;;;5004871;28;20084;-66
2023/05/10 11:27:21;;;;;;;5.78;2.90;;;;;;;;;;5011327;28;20551;-66
2023/05/10 11:29:46;;;;;;;5.90;2.40;;;;;;;;;;5014424;28;20484;-67
2023/05/10 11:32:12;;;;;;;7.53;2.70;;;;;;;;;;5009115;28;20033;-65
2023/05/10 11:34:38;;;;;;;5.03;2.75;;;;;;;;;;5004669;28;20018;-67
2023/05/10 11:37:03;;;;;;;5.55;2.38;;;;;;;;;;5001933;28;20140;-66
2023/05/10 11:39:29;;;;;;;5.07;2.45;;;;;;;;;;5008984;28;20393;-65
2023/05/10 11:41:54;;;;;;;5.68;2.70;;;;;;;;;;5009086;28;20486;-67
2023/05/10 11:44:20;;;;;;;6.70;2.58;;;;;;;;;;5008395;28;20037;-66
2023/05/10 11:46:45;;;;;;;5.57;2.47;;;;;;;;;;5009443;28;20028;-65
2023/05/10 11:49:10;;;;;;;6.57;2.47;;;;;;;;;;5004129;28;20017;-66
2023/05/10 11:51:36;;;;;;;6.97;2.53;;;;;;;;;;5023823;28;20046;-66
2023/05/10 11:54:05;;;;;;;6.63;2.70;;;;;;;;;;5019479;28;20018;-65
2023/05/10 11:56:32;;;;;;;5.47;2.40;;;;;;;;;;5010816;28;20038;-66
2023/05/10 11:58:57;;;;;;;5.80;2.53;;;;;;;;;;5010624;28;20022;-66
2023/05/10 12:01:23;;;;;;;5.25;2.40;;;;;;;;;;5008323;28;20045;-66
2023/05/10 12:03:49;;;;;;;5.60;2.47;;;;;;;;;;5012841;28;20087;-66
2023/05/10 12:06:15;;;;;;;7.57;2.33;;;;;;;;;;5013714;28;20018;-66
2023/05/10 12:08:43;;;;;;;5.13;2.30;;;;;;;;;;5011459;28;20030;-65
2023/05/10 12:11:12;;;;;;;4.72;2.13;;;;;;;;;;5011850;28;20029;-66
2023/05/10 12:13:40;;;;;;;7.15;2.88;;;;;;;;;;5012621;28;20045;-66
2023/05/10 12:16:20;;;;;;;5.60;2.42;;;;;;;;;;5013078;28;20018;-66
2023/05/10 12:18:47;;;;;;;6.13;2.30;;;;;;;;;;5012818;28;20481;-65
2023/05/10 12:21:13;;;;;;;5.63;2.50;;;;;;;;;;5011503;28;20105;-64
2023/05/10 12:23:38;;;;;;;6.27;2.90;;;;;;;;;;5009192;28;20160;-65
2023/05/10 12:26:04;;;;;;;5.82;2.47;;;;;;;;;;5010092;28;20060;-65
2023/05/10 12:28:32;;;;;;;5.57;2.60;;;;;;;;;;5011453;28;20033;-66
2023/05/10 12:30:57;;;;;;;5.57;2.42;;;;;;;;;;5011702;28;20065;-65
2023/05/10 12:33:23;;;;;;;5.45;2.33;;;;;;;;;;5013492;28;20026;-66
2023/05/10 12:35:51;;;;;;;7.32;2.70;;;;;;;;;;5011893;28;20528;-66
2023/05/10 12:38:25;;;;;;;5.00;2.75;;;;;;;;;;5007288;28;20017;-66
2023/05/10 12:40:50;;;;;;;7.72;2.95;;;;;;;;;;5008271;28;20050;-65
2023/05/10 12:43:15;;;;;;;4.73;2.40;;;;;;;;;;5012786;28;20061;-66
2023/05/10 12:45:40;;;;;;;5.43;2.30;;;;;;;;;;5012574;28;20022;-65
2023/05/10 12:48:05;;;;;;;5.72;2.60;;;;;;;;;;5013839;28;20040;-65
2023/05/10 12:50:30;;;;;;;5.20;2.58;;;;;;;;;;5012333;28;20041;-66
2023/05/10 12:52:56;;;;;;;7.32;2.28;;;;;;;;;;5012679;28;20018;-65
2023/05/10 12:55:21;;;;;;;5.13;2.28;;;;;;;;;;5012649;28;20059;-66
2023/05/10 12:57:46;;;;;;;5.37;2.47;;;;;;;;;;5011841;28;20025;-65
2023/05/10 13:00:11;;;;;;;5.15;2.65;;;;;;;;;;5012154;28;20528;-64
2023/05/10 13:02:36;;;;;;;6.03;2.70;;;;;;;;;;5009732;28;20025;-65
2023/05/10 13:05:02;;;;;;;5.03;2.20;;;;;;;;;;5011938;28;20030;-65
2023/05/10 13:07:27;;;;;;;5.00;2.30;;;;;;;;;;5011313;28;20072;-67
2023/05/10 13:09:52;;;;;;;6.23;2.90;;;;;;;;;;5012470;28;20017;-66
2023/05/10 13:12:17;;;;;;;6.45;2.50;;;;;;;;;;5011207;28;20052;-66
2023/05/10 13:14:42;;;;;;;4.43;2.10;;;;;;;;;;5011986;28;20057;-66
2023/05/10 13:17:08;;;;;;;4.80;2.47;;;;;;;;;;5011381;28;20052;-65
2023/05/10 13:19:33;;;;;;;4.40;1.90;;;;;;;;;;5012143;28;20045;-66
2023/05/10 13:21:58;;;;;;;6.17;2.40;;;;;;;;;;5012015;28;20474;-66
2023/05/10 13:24:23;;;;;;;5.70;2.13;;;;;;;;;;5011583;28;20084;-66
2023/05/10 13:26:49;;;;;;;4.60;2.03;;;;;;;;;;5007601;28;20028;-65
2023/05/10 13:29:17;;;;;;;6.28;2.05;;;;;;;;;;5017372;28;20022;-66
2023/05/10 13:31:42;;;;;;;5.45;2.22;;;;;;;;;;5016812;28;20071;-67
2023/05/10 13:34:07;;;;;;;4.47;2.15;;;;;;;;;;5011981;28;20026;-65
2023/05/10 13:36:32;;;;;;;4.85;2.20;;;;;;;;;;5011421;28;20549;-66
2023/05/10 13:38:57;;;;;;;5.20;2.30;;;;;;;;;;5011108;28;20124;-66
2023/05/10 13:41:23;;;;;;;5.57;2.33;;;;;;;;;;5008816;28;20465;-67
2023/05/10 13:43:48;;;;;;;4.78;2.05;;;;;;;;;;5005853;28;20022;-67
2023/05/10 13:46:13;;;;;;;6.72;2.20;;;;;;;;;;5011338;28;20022;-64
2023/05/10 13:48:39;;;;;;;4.57;2.30;;;;;;;;;;5010599;28;20464;-64
2023/05/10 13:51:04;;;;;;;4.95;2.10;;;;;;;;;;5007721;28;20067;-63
2023/05/10 13:53:29;;;;;;;4.43;1.93;;;;;;;;;;5005254;28;20026;-65
2023/05/10 13:55:54;;;;;;;5.05;2.40;;;;;;;;;;5011421;28;20096;-64
2023/05/10 13:58:19;;;;;;;6.57;2.15;;;;;;;;;;5007091;28;20022;-63
2023/05/10 14:00:45;;;;;;;6.73;2.30;;;;;;;;;;5009417;28;20164;-64
2023/05/10 14:03:10;;;;;;;6.63;2.00;;;;;;;;;;5009098;28;20041;-64
2023/05/10 14:05:35;;;;;;;4.80;2.20;;;;;;;;;;5011394;28;20022;-63
2023/05/10 14:08:01;;;;;;;5.43;1.90;;;;;;;;;;5011627;28;20014;-64
2023/05/10 14:10:26;;;;;;;4.38;1.90;;;;;;;;;;5010748;28;20026;-65
2023/05/10 14:12:51;;;;;;;4.00;2.00;;;;;;;;;;5010957;28;20125;-65
2023/05/10 14:15:16;;;;;;;5.23;2.10;;;;;;;;;;5011540;28;20013;-65
2023/05/10 14:17:42;;;;;;;5.47;2.33;;;;;;;;;;5006932;28;20089;-64
2023/05/10 14:20:07;;;;;;;6.60;2.17;;;;;;;;;;5008769;28;20046;-65
2023/05/10 14:22:32;;;;;;;6.22;2.22;;;;;;;;;;5005852;28;20428;-65
2023/05/10 14:24:58;;;;;;;7.97;2.50;;;;;;;;;;5009047;28;20022;-65
2023/05/10 14:27:23;;;;;;;6.63;2.20;;;;;;;;;;5010707;28;20014;-65
2023/05/10 14:29:48;;;;;;;6.63;2.20;;;;;;;;;;5011870;28;20026;-66
2023/05/10 14:32:13;;;;;;;3.92;2.00;;;;;;;;;;5004900;28;20497;-66
2023/05/10 14:34:38;;;;;;;5.53;2.35;;;;;;;;;;5010366;28;20520;-66
2023/05/10 14:37:04;;;;;;;4.83;2.20;;;;;;;;;;5010457;28;20022;-66
2023/05/10 14:39:29;;;;;;;6.28;1.95;;;;;;;;;;5008027;28;20057;-66
2023/05/10 14:41:55;;;;;;;6.38;2.10;;;;;;;;;;5005527;28;20050;-66